Index of /authors/id/R/RH/RHESA

[ICO]NameLast modifiedSize
[DIR]Parent Directory  -
[   ]CGI-Application-Plugin-CompressGzip-1.02.meta07-Jan-2010 13:24 383
[   ]CGI-Application-Plugin-CompressGzip-1.02.readme07-Jan-2010 13:24 296
[   ]CGI-Application-Plugin-CompressGzip-1.02.tar.gz07-Jan-2010 13:25 8.7K
[   ]CGI-Application-Plugin-DevPopup-1.08.meta18-Jan-2013 12:30 611
[   ]CGI-Application-Plugin-DevPopup-1.08.readme18-Jan-2013 12:30 324
[   ]CGI-Application-Plugin-DevPopup-1.08.tar.gz18-Jan-2013 12:31 16K
[   ]CGI-Application-Plugin-HtmlTidy-1.05.meta15-May-2011 23:31 566
[   ]CGI-Application-Plugin-HtmlTidy-1.05.readme15-May-2011 23:31 329
[   ]CGI-Application-Plugin-HtmlTidy-1.05.tar.gz15-May-2011 23:32 14K
[   ]CGI-Application-Plugin-RunmodeDeclare-0.10.meta10-Feb-2012 00:53 581
[   ]CGI-Application-Plugin-RunmodeDeclare-0.10.readme10-Feb-2012 00:53 330
[   ]CGI-Application-Plugin-RunmodeDeclare-0.10.tar.gz10-Feb-2012 00:53 14K
[   ]CHECKSUMS03-Jun-2017 00:50 15K
[   ]DBIx-Counter-0.03.meta20-Nov-2006 20:01 526
[   ]DBIx-Counter-0.03.readme20-Nov-2006 19:59 2.5K
[   ]DBIx-Counter-0.03.tar.gz20-Nov-2006 20:07 5.4K
[   ]HTML-Template-Pluggable-0.17.meta27-Sep-2007 01:37 557
[   ]HTML-Template-Pluggable-0.17.readme28-Mar-2007 03:33 3.8K
[   ]HTML-Template-Pluggable-0.17.tar.gz27-Sep-2007 01:41 25K
[   ]HTML-Template-Plugin-Dot-Helpers-0.06.meta18-Jan-2013 13:31 624
[   ]HTML-Template-Plugin-Dot-Helpers-0.06.readme18-Jan-2013 13:31 324
[   ]HTML-Template-Plugin-Dot-Helpers-0.06.tar.gz18-Jan-2013 13:32 10K
[   ]Method-Signatures-Simple-1.07.meta20-Jan-2013 22:06 558
[   ]Method-Signatures-Simple-1.07.readme20-Jan-2013 22:06 345
[   ]Method-Signatures-Simple-1.07.tar.gz20-Jan-2013 22:06 13K
[   ]Net-Google-CalendarV3-0.01.meta15-Aug-2014 00:59 586
[   ]Net-Google-CalendarV3-0.01.readme15-Aug-2014 00:59 388
[   ]Net-Google-CalendarV3-0.01.tar.gz15-Aug-2014 01:00 11K
[   ]Net-Google-CalendarV3-0.02.meta15-Aug-2014 15:34 586
[   ]Net-Google-CalendarV3-0.02.readme15-Aug-2014 15:34 388
[   ]Net-Google-CalendarV3-0.02.tar.gz15-Aug-2014 15:34 11K
[   ]Net-Google-CalendarV3-0.03.meta19-Aug-2014 09:42 586
[   ]Net-Google-CalendarV3-0.03.readme19-Aug-2014 09:42 388
[   ]Net-Google-CalendarV3-0.03.tar.gz19-Aug-2014 09:43 11K
[   ]Net-Google-CalendarV3-0.04.meta19-Aug-2014 10:30 586
[   ]Net-Google-CalendarV3-0.04.readme19-Aug-2014 10:30 388
[   ]Net-Google-CalendarV3-0.04.tar.gz19-Aug-2014 10:30 11K
[   ]Net-Google-CalendarV3-0.05.meta19-Aug-2014 13:52 617
[   ]Net-Google-CalendarV3-0.05.readme19-Aug-2014 13:52 388
[   ]Net-Google-CalendarV3-0.05.tar.gz19-Aug-2014 13:52 11K
[   ]Net-Google-CalendarV3-0.06.meta08-Sep-2014 02:21 617
[   ]Net-Google-CalendarV3-0.06.readme08-Sep-2014 02:21 388
[   ]Net-Google-CalendarV3-0.06.tar.gz08-Sep-2014 02:22 11K
[   ]Net-Google-CalendarV3-0.07.meta08-Sep-2014 23:16 617
[   ]Net-Google-CalendarV3-0.07.readme08-Sep-2014 23:16 388
[   ]Net-Google-CalendarV3-0.07.tar.gz08-Sep-2014 23:17 11K
[   ]Net-Google-CalendarV3-0.08.meta21-Oct-2014 13:33 617
[   ]Net-Google-CalendarV3-0.08.readme21-Oct-2014 13:33 388
[   ]Net-Google-CalendarV3-0.08.tar.gz21-Oct-2014 13:34 11K
[   ]Net-Google-CalendarV3-0.09.meta23-Oct-2014 11:34 617
[   ]Net-Google-CalendarV3-0.09.readme23-Oct-2014 11:34 388
[   ]Net-Google-CalendarV3-0.09.tar.gz23-Oct-2014 11:35 11K
[   ]Net-Google-CalendarV3-0.10.meta23-Oct-2014 22:19 617
[   ]Net-Google-CalendarV3-0.10.readme23-Oct-2014 22:19 388
[   ]Net-Google-CalendarV3-0.10.tar.gz23-Oct-2014 22:20 11K
[   ]Net-Google-CalendarV3-0.11.meta17-Nov-2014 13:51 617
[   ]Net-Google-CalendarV3-0.11.readme17-Nov-2014 13:51 388
[   ]Net-Google-CalendarV3-0.11.tar.gz17-Nov-2014 13:51 11K
[   ]Net-Google-CalendarV3-0.12.meta25-Nov-2014 13:08 617
[   ]Net-Google-CalendarV3-0.12.readme25-Nov-2014 13:08 388
[   ]Net-Google-CalendarV3-0.12.tar.gz25-Nov-2014 13:09 11K
[   ]Net-Google-CalendarV3-0.13.meta06-Dec-2014 15:55 617
[   ]Net-Google-CalendarV3-0.13.readme06-Dec-2014 15:55 388
[   ]Net-Google-CalendarV3-0.13.tar.gz06-Dec-2014 16:27 12K
[   ]Net-Google-CalendarV3-0.14.meta23-Feb-2015 13:18 617
[   ]Net-Google-CalendarV3-0.14.readme23-Feb-2015 13:18 388
[   ]Net-Google-CalendarV3-0.14.tar.gz23-Feb-2015 13:18 12K
[   ]Net-Google-CalendarV3-0.15.meta23-Feb-2015 13:48 617
[   ]Net-Google-CalendarV3-0.15.readme23-Feb-2015 13:48 388
[   ]Net-Google-CalendarV3-0.15.tar.gz23-Feb-2015 14:00 12K
[   ]Net-Google-CalendarV3-0.16.meta06-Jul-2016 22:37 637
[   ]Net-Google-CalendarV3-0.16.readme06-Jul-2016 22:37 388
[   ]Net-Google-CalendarV3-0.16.tar.gz06-Jul-2016 22:38 12K
[   ]Proc-Supervised-Convenience-1.01.meta27-Oct-2011 10:13 581
[   ]Proc-Supervised-Convenience-1.01.readme27-Oct-2011 10:13 320
[   ]Proc-Supervised-Convenience-1.01.tar.gz27-Oct-2011 10:13 9.7K